sensor_id;sensor_type;location;lat;lon;timestamp;pressure;altitude;pressure_sealevel;temperature;humidity
53340;BME280;46212;50.258;19.062;2023-03-13T00:00:30;98036.22;;;4.75;65.77
53340;BME280;46212;50.258;19.062;2023-03-13T00:02:55;98047.09;;;4.78;65.66
53340;BME280;46212;50.258;19.062;2023-03-13T00:05:20;98028.69;;;4.79;66.10
53340;BME280;46212;50.258;19.062;2023-03-13T00:07:46;98025.44;;;4.84;66.27
53340;BME280;46212;50.258;19.062;2023-03-13T00:10:11;98012.25;;;4.79;66.31
53340;BME280;46212;50.258;19.062;2023-03-13T00:12:37;98034.41;;;4.85;67.02
53340;BME280;46212;50.258;19.062;2023-03-13T00:15:02;98031.28;;;4.99;66.45
53340;BME280;46212;50.258;19.062;2023-03-13T00:17:28;98020.66;;;4.88;66.72
53340;BME280;46212;50.258;19.062;2023-03-13T00:19:53;98023.31;;;5.04;66.89
53340;BME280;46212;50.258;19.062;2023-03-13T00:22:20;98018.69;;;5.01;66.92
53340;BME280;46212;50.258;19.062;2023-03-13T00:24:45;98030.09;;;5.00;67.46
53340;BME280;46212;50.258;19.062;2023-03-13T00:27:11;98038.13;;;5.07;67.47
53340;BME280;46212;50.258;19.062;2023-03-13T00:29:36;98023.53;;;4.97;68.11
53340;BME280;46212;50.258;19.062;2023-03-13T00:32:02;98010.44;;;4.89;68.70
53340;BME280;46212;50.258;19.062;2023-03-13T00:34:27;98011.13;;;4.93;68.84
53340;BME280;46212;50.258;19.062;2023-03-13T00:36:53;98010.94;;;5.00;68.65
53340;BME280;46212;50.258;19.062;2023-03-13T00:39:20;98028.78;;;5.04;68.73
53340;BME280;46212;50.258;19.062;2023-03-13T00:41:45;97990.81;;;5.06;68.81
53340;BME280;46212;50.258;19.062;2023-03-13T00:44:11;97983.75;;;4.93;69.26
53340;BME280;46212;50.258;19.062;2023-03-13T00:46:36;97983.47;;;5.03;69.36
53340;BME280;46212;50.258;19.062;2023-03-13T00:49:02;97972.81;;;4.93;69.61
53340;BME280;46212;50.258;19.062;2023-03-13T00:51:28;97996.16;;;4.97;69.99
53340;BME280;46212;50.258;19.062;2023-03-13T00:53:55;97981.81;;;4.93;70.08
53340;BME280;46212;50.258;19.062;2023-03-13T00:56:21;97971.22;;;5.08;69.80
53340;BME280;46212;50.258;19.062;2023-03-13T00:58:48;97978.81;;;5.16;70.08
53340;BME280;46212;50.258;19.062;2023-03-13T01:01:32;97976.72;;;5.20;70.19
53340;BME280;46212;50.258;19.062;2023-03-13T01:04:03;97999.88;;;5.32;70.21
53340;BME280;46212;50.258;19.062;2023-03-13T01:06:31;97983.63;;;5.25;70.77
53340;BME280;46212;50.258;19.062;2023-03-13T01:08:57;97989.94;;;5.09;71.24
53340;BME280;46212;50.258;19.062;2023-03-13T01:11:29;97965.41;;;5.06;71.51
53340;BME280;46212;50.258;19.062;2023-03-13T01:13:57;97996.03;;;5.29;71.38
53340;BME280;46212;50.258;19.062;2023-03-13T01:16:23;97959.59;;;4.91;72.38
53340;BME280;46212;50.258;19.062;2023-03-13T01:18:54;97982.97;;;5.21;72.46
53340;BME280;46212;50.258;19.062;2023-03-13T01:21:21;97994.38;;;5.32;72.19
53340;BME280;46212;50.258;19.062;2023-03-13T01:23:47;97975.75;;;5.27;72.21
53340;BME280;46212;50.258;19.062;2023-03-13T01:26:14;97990.41;;;5.20;72.68
53340;BME280;46212;50.258;19.062;2023-03-13T01:28:40;98000.06;;;5.25;73.16
53340;BME280;46212;50.258;19.062;2023-03-13T01:31:13;98005.88;;;5.40;72.91
53340;BME280;46212;50.258;19.062;2023-03-13T01:33:39;97996.53;;;5.12;73.62
53340;BME280;46212;50.258;19.062;2023-03-13T01:36:05;98005.84;;;5.27;73.68
53340;BME280;46212;50.258;19.062;2023-03-13T01:38:31;98008.59;;;5.27;73.85
53340;BME280;46212;50.258;19.062;2023-03-13T01:40:56;98014.75;;;5.31;74.03
53340;BME280;46212;50.258;19.062;2023-03-13T01:43:24;98016.59;;;5.21;74.05
53340;BME280;46212;50.258;19.062;2023-03-13T01:48:33;98017.72;;;5.36;73.99
53340;BME280;46212;50.258;19.062;2023-03-13T01:51:02;98004.69;;;5.41;73.85
53340;BME280;46212;50.258;19.062;2023-03-13T01:53:30;97994.16;;;5.39;73.77
53340;BME280;46212;50.258;19.062;2023-03-13T01:56:00;97999.09;;;5.31;74.56
53340;BME280;46212;50.258;19.062;2023-03-13T01:58:29;97994.47;;;5.16;75.77
53340;BME280;46212;50.258;19.062;2023-03-13T02:00:55;97983.09;;;5.30;75.07
53340;BME280;46212;50.258;19.062;2023-03-13T02:03:21;97995.91;;;5.33;75.23
53340;BME280;46212;50.258;19.062;2023-03-13T02:05:49;97987.25;;;5.34;75.24
53340;BME280;46212;50.258;19.062;2023-03-13T02:08:18;98013.47;;;5.48;75.33
53340;BME280;46212;50.258;19.062;2023-03-13T02:10:52;98002.03;;;5.24;76.02
53340;BME280;46212;50.258;19.062;2023-03-13T02:13:19;97973.69;;;5.31;76.20
53340;BME280;46212;50.258;19.062;2023-03-13T02:15:46;97988.91;;;5.32;76.07
53340;BME280;46212;50.258;19.062;2023-03-13T02:18:12;98011.72;;;5.42;76.33
53340;BME280;46212;50.258;19.062;2023-03-13T02:20:38;97997.66;;;5.27;76.78
53340;BME280;46212;50.258;19.062;2023-03-13T02:25:57;98015.00;;;5.49;76.70
53340;BME280;46212;50.258;19.062;2023-03-13T02:28:26;98017.19;;;5.42;76.80
53340;BME280;46212;50.258;19.062;2023-03-13T02:30:54;98024.06;;;5.46;77.60
53340;BME280;46212;50.258;19.062;2023-03-13T02:33:21;98029.75;;;5.39;77.53
53340;BME280;46212;50.258;19.062;2023-03-13T02:35:51;98027.59;;;5.59;77.14
53340;BME280;46212;50.258;19.062;2023-03-13T02:38:24;98038.13;;;5.48;77.45
53340;BME280;46212;50.258;19.062;2023-03-13T02:40:51;98018.50;;;5.50;77.55
53340;BME280;46212;50.258;19.062;2023-03-13T02:43:23;98010.81;;;5.32;77.93
53340;BME280;46212;50.258;19.062;2023-03-13T02:48:37;98037.69;;;5.50;78.33
53340;BME280;46212;50.258;19.062;2023-03-13T02:51:07;98035.72;;;5.50;78.66
53340;BME280;46212;50.258;19.062;2023-03-13T02:53:35;98020.59;;;5.58;78.13
53340;BME280;46212;50.258;19.062;2023-03-13T02:56:01;98029.06;;;5.64;77.82
53340;BME280;46212;50.258;19.062;2023-03-13T02:58:35;98035.72;;;5.63;78.07
53340;BME280;46212;50.258;19.062;2023-03-13T03:01:00;98031.63;;;5.29;78.86
53340;BME280;46212;50.258;19.062;2023-03-13T03:03:31;98048.31;;;5.48;79.10
53340;BME280;46212;50.258;19.062;2023-03-13T03:05:57;98030.81;;;5.58;78.79
53340;BME280;46212;50.258;19.062;2023-03-13T03:08:22;98023.59;;;5.76;77.87
53340;BME280;46212;50.258;19.062;2023-03-13T03:10:48;98034.00;;;5.81;78.09
53340;BME280;46212;50.258;19.062;2023-03-13T03:13:13;98021.53;;;5.39;79.45
53340;BME280;46212;50.258;19.062;2023-03-13T03:15:38;98048.75;;;5.59;79.64
53340;BME280;46212;50.258;19.062;2023-03-13T03:18:04;98041.41;;;5.68;79.23
53340;BME280;46212;50.258;19.062;2023-03-13T03:20:29;98030.88;;;5.42;80.02
53340;BME280;46212;50.258;19.062;2023-03-13T03:22:55;98040.31;;;5.53;79.66
53340;BME280;46212;50.258;19.062;2023-03-13T03:25:20;98038.47;;;5.75;79.41
53340;BME280;46212;50.258;19.062;2023-03-13T03:27:45;98041.53;;;5.65;79.53
53340;BME280;46212;50.258;19.062;2023-03-13T03:30:11;98044.50;;;5.58;80.16
53340;BME280;46212;50.258;19.062;2023-03-13T03:32:36;98033.22;;;5.68;79.90
53340;BME280;46212;50.258;19.062;2023-03-13T03:35:02;98049.31;;;5.66;79.83
53340;BME280;46212;50.258;19.062;2023-03-13T03:37:27;98036.16;;;5.61;80.21
53340;BME280;46212;50.258;19.062;2023-03-13T03:39:53;98041.75;;;5.58;80.32
53340;BME280;46212;50.258;19.062;2023-03-13T03:42:18;98039.34;;;5.72;79.82
53340;BME280;46212;50.258;19.062;2023-03-13T03:44:44;98038.06;;;5.77;80.06
53340;BME280;46212;50.258;19.062;2023-03-13T03:47:09;98044.25;;;5.52;80.88
53340;BME280;46212;50.258;19.062;2023-03-13T03:49:35;98026.84;;;5.59;81.08
53340;BME280;46212;50.258;19.062;2023-03-13T03:52:00;98030.56;;;5.77;80.32
53340;BME280;46212;50.258;19.062;2023-03-13T03:54:26;98035.50;;;5.57;80.80
53340;BME280;46212;50.258;19.062;2023-03-13T03:56:51;98035.16;;;5.55;80.83
53340;BME280;46212;50.258;19.062;2023-03-13T03:59:16;98048.13;;;5.67;80.48
53340;BME280;46212;50.258;19.062;2023-03-13T04:01:42;98035.63;;;5.66;80.73
53340;BME280;46212;50.258;19.062;2023-03-13T04:04:08;98018.88;;;5.64;80.61
53340;BME280;46212;50.258;19.062;2023-03-13T04:06:33;98029.38;;;5.78;79.73
53340;BME280;46212;50.258;19.062;2023-03-13T04:08:59;98033.00;;;5.75;80.43
53340;BME280;46212;50.258;19.062;2023-03-13T04:11:24;98042.66;;;5.80;80.66
53340;BME280;46212;50.258;19.062;2023-03-13T04:13:50;98044.19;;;5.81;80.54
53340;BME280;46212;50.258;19.062;2023-03-13T04:16:15;98042.97;;;5.69;80.09
53340;BME280;46212;50.258;19.062;2023-03-13T04:18:41;98029.38;;;5.78;80.86
53340;BME280;46212;50.258;19.062;2023-03-13T04:21:06;98049.09;;;5.61;81.39
53340;BME280;46212;50.258;19.062;2023-03-13T04:23:31;98027.94;;;5.61;81.95
53340;BME280;46212;50.258;19.062;2023-03-13T04:25:57;98027.81;;;5.52;82.00
53340;BME280;46212;50.258;19.062;2023-03-13T04:28:22;98033.06;;;5.47;82.28
53340;BME280;46212;50.258;19.062;2023-03-13T04:30:48;98029.16;;;5.73;81.41
53340;BME280;46212;50.258;19.062;2023-03-13T04:33:13;98021.72;;;5.61;81.79
53340;BME280;46212;50.258;19.062;2023-03-13T04:35:39;98016.97;;;5.61;82.20
53340;BME280;46212;50.258;19.062;2023-03-13T04:38:04;97996.28;;;5.48;82.22
53340;BME280;46212;50.258;19.062;2023-03-13T04:40:30;98020.38;;;5.65;81.66
53340;BME280;46212;50.258;19.062;2023-03-13T04:42:55;98001.22;;;5.65;81.36
53340;BME280;46212;50.258;19.062;2023-03-13T04:45:20;98023.13;;;5.78;81.27
53340;BME280;46212;50.258;19.062;2023-03-13T04:47:46;98014.28;;;5.74;81.59
53340;BME280;46212;50.258;19.062;2023-03-13T04:50:11;98017.16;;;5.96;80.75
53340;BME280;46212;50.258;19.062;2023-03-13T04:52:37;98013.06;;;6.00;80.29
53340;BME280;46212;50.258;19.062;2023-03-13T04:55:03;98022.84;;;5.88;80.95
53340;BME280;46212;50.258;19.062;2023-03-13T04:57:28;98021.06;;;5.69;81.34
53340;BME280;46212;50.258;19.062;2023-03-13T04:59:54;98010.84;;;5.57;81.73
53340;BME280;46212;50.258;19.062;2023-03-13T05:02:19;97995.38;;;5.38;82.19
53340;BME280;46212;50.258;19.062;2023-03-13T05:04:44;98014.22;;;5.61;82.40
53340;BME280;46212;50.258;19.062;2023-03-13T05:07:10;97994.09;;;5.68;81.55
53340;BME280;46212;50.258;19.062;2023-03-13T05:09:35;98017.47;;;5.98;81.22
53340;BME280;46212;50.258;19.062;2023-03-13T05:12:01;98010.78;;;5.86;80.63
53340;BME280;46212;50.258;19.062;2023-03-13T05:14:26;98011.09;;;5.75;81.57
53340;BME280;46212;50.258;19.062;2023-03-13T05:16:51;98008.13;;;5.82;81.45
53340;BME280;46212;50.258;19.062;2023-03-13T05:19:17;98012.19;;;5.78;81.38
53340;BME280;46212;50.258;19.062;2023-03-13T05:21:42;98002.88;;;6.13;80.33
53340;BME280;46212;50.258;19.062;2023-03-13T05:24:08;97996.09;;;6.05;80.29
53340;BME280;46212;50.258;19.062;2023-03-13T05:26:33;97989.41;;;5.94;80.48
53340;BME280;46212;50.258;19.062;2023-03-13T05:28:58;97986.34;;;5.92;80.51
53340;BME280;46212;50.258;19.062;2023-03-13T05:31:24;98013.09;;;5.87;80.72
53340;BME280;46212;50.258;19.062;2023-03-13T05:33:49;98001.25;;;5.91;80.93
53340;BME280;46212;50.258;19.062;2023-03-13T05:36:15;98001.88;;;5.82;81.14
53340;BME280;46212;50.258;19.062;2023-03-13T05:38:40;97992.78;;;5.85;81.41
53340;BME280;46212;50.258;19.062;2023-03-13T05:41:05;97990.59;;;5.80;81.14
53340;BME280;46212;50.258;19.062;2023-03-13T05:43:31;98003.66;;;6.01;80.58
53340;BME280;46212;50.258;19.062;2023-03-13T05:45:56;97983.81;;;5.97;80.61
53340;BME280;46212;50.258;19.062;2023-03-13T05:48:22;97985.44;;;5.82;81.03
53340;BME280;46212;50.258;19.062;2023-03-13T05:50:47;97991.38;;;5.93;81.10
53340;BME280;46212;50.258;19.062;2023-03-13T05:53:12;97990.16;;;5.94;81.43
53340;BME280;46212;50.258;19.062;2023-03-13T05:55:38;97990.06;;;6.10;80.21
53340;BME280;46212;50.258;19.062;2023-03-13T05:58:03;97987.41;;;6.19;79.95
53340;BME280;46212;50.258;19.062;2023-03-13T06:00:29;97985.72;;;6.34;79.62
53340;BME280;46212;50.258;19.062;2023-03-13T06:02:54;97977.66;;;6.18;80.09
53340;BME280;46212;50.258;19.062;2023-03-13T06:05:20;97964.50;;;6.13;80.33
53340;BME280;46212;50.258;19.062;2023-03-13T06:07:45;97960.34;;;6.09;80.30
53340;BME280;46212;50.258;19.062;2023-03-13T06:10:11;97978.72;;;6.33;80.08
53340;BME280;46212;50.258;19.062;2023-03-13T06:12:36;97971.69;;;6.32;79.75
53340;BME280;46212;50.258;19.062;2023-03-13T06:15:02;97954.38;;;6.23;80.01
53340;BME280;46212;50.258;19.062;2023-03-13T06:17:28;97971.94;;;6.25;80.16
53340;BME280;46212;50.258;19.062;2023-03-13T06:19:53;97967.38;;;6.44;79.85
53340;BME280;46212;50.258;19.062;2023-03-13T06:22:18;97965.81;;;6.21;79.92
53340;BME280;46212;50.258;19.062;2023-03-13T06:24:44;97967.38;;;6.44;79.47
53340;BME280;46212;50.258;19.062;2023-03-13T06:27:11;97951.41;;;6.30;79.75
53340;BME280;46212;50.258;19.062;2023-03-13T06:29:36;97966.91;;;6.58;79.05
53340;BME280;46212;50.258;19.062;2023-03-13T06:32:01;97958.09;;;6.63;78.30
53340;BME280;46212;50.258;19.062;2023-03-13T06:34:27;97957.88;;;6.36;79.06
53340;BME280;46212;50.258;19.062;2023-03-13T06:36:52;97964.09;;;6.49;78.90
53340;BME280;46212;50.258;19.062;2023-03-13T06:39:18;97973.16;;;6.59;78.56
53340;BME280;46212;50.258;19.062;2023-03-13T06:41:43;97972.41;;;6.80;77.80
53340;BME280;46212;50.258;19.062;2023-03-13T06:44:08;97969.06;;;6.98;77.12
53340;BME280;46212;50.258;19.062;2023-03-13T06:46:34;97971.09;;;7.06;76.54
53340;BME280;46212;50.258;19.062;2023-03-13T06:48:59;97972.03;;;7.34;75.27
53340;BME280;46212;50.258;19.062;2023-03-13T06:51:29;97973.91;;;7.46;74.73
53340;BME280;46212;50.258;19.062;2023-03-13T06:53:54;97972.44;;;7.54;74.34
53340;BME280;46212;50.258;19.062;2023-03-13T06:56:19;97976.16;;;7.69;73.91
53340;BME280;46212;50.258;19.062;2023-03-13T06:58:46;97976.91;;;7.61;73.59
53340;BME280;46212;50.258;19.062;2023-03-13T07:01:13;97971.03;;;7.49;74.45
53340;BME280;46212;50.258;19.062;2023-03-13T07:03:39;97961.50;;;7.63;73.77
53340;BME280;46212;50.258;19.062;2023-03-13T07:06:07;97962.56;;;7.66;73.36
53340;BME280;46212;50.258;19.062;2023-03-13T07:08:34;97959.97;;;7.71;73.41
53340;BME280;46212;50.258;19.062;2023-03-13T07:11:05;97964.34;;;7.90;72.96
53340;BME280;46212;50.258;19.062;2023-03-13T07:13:31;97950.44;;;7.94;72.33
53340;BME280;46212;50.258;19.062;2023-03-13T07:16:04;97967.19;;;8.18;72.05
53340;BME280;46212;50.258;19.062;2023-03-13T07:18:31;97972.19;;;8.10;71.88
53340;BME280;46212;50.258;19.062;2023-03-13T07:20:58;97958.72;;;8.03;72.55
53340;BME280;46212;50.258;19.062;2023-03-13T07:23:25;97952.03;;;8.22;71.32
53340;BME280;46212;50.258;19.062;2023-03-13T07:25:55;97935.78;;;7.97;71.97
53340;BME280;46212;50.258;19.062;2023-03-13T07:28:22;97960.13;;;8.08;71.91
53340;BME280;46212;50.258;19.062;2023-03-13T07:30:47;97943.63;;;8.08;72.30
53340;BME280;46212;50.258;19.062;2023-03-13T07:33:14;97949.41;;;8.10;72.30
53340;BME280;46212;50.258;19.062;2023-03-13T07:35:39;97927.63;;;8.24;71.75
53340;BME280;46212;50.258;19.062;2023-03-13T07:38:04;97939.06;;;8.23;71.92
53340;BME280;46212;50.258;19.062;2023-03-13T07:40:30;97927.91;;;8.26;72.00
53340;BME280;46212;50.258;19.062;2023-03-13T07:42:55;97923.22;;;8.54;71.29
53340;BME280;46212;50.258;19.062;2023-03-13T07:45:21;97927.06;;;8.75;70.75
53340;BME280;46212;50.258;19.062;2023-03-13T07:47:46;97908.09;;;8.68;69.93
53340;BME280;46212;50.258;19.062;2023-03-13T07:50:11;97918.47;;;8.91;69.97
53340;BME280;46212;50.258;19.062;2023-03-13T07:52:37;97926.72;;;9.00;70.42
53340;BME280;46212;50.258;19.062;2023-03-13T07:55:03;97923.28;;;9.23;69.72
53340;BME280;46212;50.258;19.062;2023-03-13T07:57:28;97918.88;;;9.17;68.77
53340;BME280;46212;50.258;19.062;2023-03-13T07:59:54;97932.94;;;9.28;68.15
53340;BME280;46212;50.258;19.062;2023-03-13T08:02:20;97909.06;;;9.25;68.41
53340;BME280;46212;50.258;19.062;2023-03-13T08:04:45;97922.91;;;9.48;67.96
53340;BME280;46212;50.258;19.062;2023-03-13T08:07:11;97927.81;;;9.53;67.52
53340;BME280;46212;50.258;19.062;2023-03-13T08:09:36;97928.28;;;9.43;68.26
53340;BME280;46212;50.258;19.062;2023-03-13T08:12:02;97910.22;;;9.42;68.21
53340;BME280;46212;50.258;19.062;2023-03-13T08:14:28;97926.84;;;9.66;67.49
53340;BME280;46212;50.258;19.062;2023-03-13T08:16:53;97923.34;;;9.56;67.25
53340;BME280;46212;50.258;19.062;2023-03-13T08:19:18;97931.50;;;9.50;67.50
53340;BME280;46212;50.258;19.062;2023-03-13T08:21:44;97910.38;;;9.47;67.87
53340;BME280;46212;50.258;19.062;2023-03-13T08:24:10;97911.72;;;9.52;67.19
53340;BME280;46212;50.258;19.062;2023-03-13T08:26:38;97924.53;;;9.22;68.17
53340;BME280;46212;50.258;19.062;2023-03-13T08:29:10;97917.19;;;9.61;67.41
53340;BME280;46212;50.258;19.062;2023-03-13T08:31:47;97908.63;;;9.59;66.68
53340;BME280;46212;50.258;19.062;2023-03-13T08:34:14;97905.28;;;9.88;66.60
53340;BME280;46212;50.258;19.062;2023-03-13T08:36:41;97906.22;;;9.85;66.27
53340;BME280;46212;50.258;19.062;2023-03-13T08:39:10;97903.66;;;10.05;66.03
53340;BME280;46212;50.258;19.062;2023-03-13T08:41:37;97905.59;;;10.37;65.15
53340;BME280;46212;50.258;19.062;2023-03-13T08:44:05;97931.94;;;10.24;64.95
53340;BME280;46212;50.258;19.062;2023-03-13T08:46:34;97889.09;;;10.04;65.73
53340;BME280;46212;50.258;19.062;2023-03-13T08:49:00;97901.50;;;10.33;64.75
53340;BME280;46212;50.258;19.062;2023-03-13T08:51:27;97890.56;;;10.62;64.09
53340;BME280;46212;50.258;19.062;2023-03-13T08:53:54;97907.06;;;10.47;64.10
53340;BME280;46212;50.258;19.062;2023-03-13T08:56:21;97920.72;;;10.27;64.87
53340;BME280;46212;50.258;19.062;2023-03-13T08:58:55;97899.72;;;10.44;64.57
53340;BME280;46212;50.258;19.062;2023-03-13T09:01:23;97901.91;;;10.40;64.29
53340;BME280;46212;50.258;19.062;2023-03-13T09:03:49;97890.50;;;10.47;63.96
53340;BME280;46212;50.258;19.062;2023-03-13T09:06:15;97893.50;;;10.73;63.33
53340;BME280;46212;50.258;19.062;2023-03-13T09:08:41;97881.88;;;10.69;63.24
53340;BME280;46212;50.258;19.062;2023-03-13T09:11:12;97875.03;;;10.79;63.51
53340;BME280;46212;50.258;19.062;2023-03-13T09:13:40;97869.25;;;10.92;63.08
53340;BME280;46212;50.258;19.062;2023-03-13T09:16:08;97897.16;;;11.08;62.21
53340;BME280;46212;50.258;19.062;2023-03-13T09:18:34;97862.00;;;10.94;62.82
53340;BME280;46212;50.258;19.062;2023-03-13T09:21:01;97867.16;;;11.01;61.94
53340;BME280;46212;50.258;19.062;2023-03-13T09:23:27;97867.34;;;11.12;62.31
53340;BME280;46212;50.258;19.062;2023-03-13T09:25:55;97880.28;;;10.77;62.62
53340;BME280;46212;50.258;19.062;2023-03-13T09:28:21;97855.63;;;10.74;63.15
53340;BME280;46212;50.258;19.062;2023-03-13T09:30:47;97861.81;;;10.98;62.84
53340;BME280;46212;50.258;19.062;2023-03-13T09:33:16;97880.69;;;10.99;62.07
53340;BME280;46212;50.258;19.062;2023-03-13T09:35:42;97852.09;;;11.02;61.98
53340;BME280;46212;50.258;19.062;2023-03-13T09:38:11;97836.84;;;11.07;61.95
53340;BME280;46212;50.258;19.062;2023-03-13T09:40:44;97832.56;;;11.06;61.92
53340;BME280;46212;50.258;19.062;2023-03-13T09:46:10;97847.56;;;11.49;61.54
53340;BME280;46212;50.258;19.062;2023-03-13T09:48:44;97830.94;;;11.63;61.18
53340;BME280;46212;50.258;19.062;2023-03-13T09:53:52;97825.25;;;11.52;59.57
53340;BME280;46212;50.258;19.062;2023-03-13T09:56:23;97823.81;;;11.92;59.39
53340;BME280;46212;50.258;19.062;2023-03-13T09:59:08;97839.72;;;12.17;58.36
53340;BME280;46212;50.258;19.062;2023-03-13T10:01:37;97826.91;;;12.40;56.77
53340;BME280;46212;50.258;19.062;2023-03-13T10:04:34;97827.81;;;12.77;55.71
53340;BME280;46212;50.258;19.062;2023-03-13T10:07:02;97843.53;;;12.40;56.23
53340;BME280;46212;50.258;19.062;2023-03-13T10:09:30;97841.53;;;12.66;55.98
53340;BME280;46212;50.258;19.062;2023-03-13T10:17:13;97810.88;;;12.75;55.01
53340;BME280;46212;50.258;19.062;2023-03-13T10:19:42;97799.56;;;13.04;54.19
53340;BME280;46212;50.258;19.062;2023-03-13T10:22:14;97836.03;;;12.97;53.21
53340;BME280;46212;50.258;19.062;2023-03-13T10:24:57;97828.66;;;12.89;53.99
53340;BME280;46212;50.258;19.062;2023-03-13T10:27:23;97835.16;;;12.60;54.45
53340;BME280;46212;50.258;19.062;2023-03-13T10:29:49;97800.47;;;12.90;53.84
53340;BME280;46212;50.258;19.062;2023-03-13T10:32:15;97814.81;;;13.14;52.73
53340;BME280;46212;50.258;19.062;2023-03-13T10:35:00;97845.91;;;13.29;52.85
53340;BME280;46212;50.258;19.062;2023-03-13T10:39:53;97768.91;;;13.13;53.32
53340;BME280;46212;50.258;19.062;2023-03-13T10:42:27;97798.16;;;13.14;52.39
53340;BME280;46212;50.258;19.062;2023-03-13T10:45:00;97769.59;;;13.03;53.06
53340;BME280;46212;50.258;19.062;2023-03-13T10:47:26;97759.66;;;13.64;51.95
53340;BME280;46212;50.258;19.062;2023-03-13T10:49:56;97767.72;;;13.62;51.34
53340;BME280;46212;50.258;19.062;2023-03-13T10:52:42;97769.63;;;13.88;51.11
53340;BME280;46212;50.258;19.062;2023-03-13T10:55:15;97756.34;;;14.14;50.42
53340;BME280;46212;50.258;19.062;2023-03-13T10:57:49;97760.66;;;14.26;50.34
53340;BME280;46212;50.258;19.062;2023-03-13T11:02:48;97746.50;;;14.18;50.05
53340;BME280;46212;50.258;19.062;2023-03-13T11:07:53;97733.03;;;13.89;51.11
53340;BME280;46212;50.258;19.062;2023-03-13T11:10:27;97737.00;;;13.71;51.05
53340;BME280;46212;50.258;19.062;2023-03-13T11:12:57;97721.03;;;13.55;51.56
53340;BME280;46212;50.258;19.062;2023-03-13T11:15:32;97749.13;;;13.79;50.85
53340;BME280;46212;50.258;19.062;2023-03-13T11:18:09;97736.66;;;13.53;50.82
53340;BME280;46212;50.258;19.062;2023-03-13T11:20:40;97729.31;;;13.44;51.58
53340;BME280;46212;50.258;19.062;2023-03-13T11:23:36;97724.31;;;13.54;51.23
53340;BME280;46212;50.258;19.062;2023-03-13T11:28:41;97694.53;;;13.06;51.47
53340;BME280;46212;50.258;19.062;2023-03-13T11:34:04;97683.75;;;12.83;52.38
53340;BME280;46212;50.258;19.062;2023-03-13T11:36:34;97685.06;;;12.87;52.37
53340;BME280;46212;50.258;19.062;2023-03-13T11:52:39;97646.81;;;13.34;51.26
53340;BME280;46212;50.258;19.062;2023-03-13T11:55:17;97681.31;;;13.32;50.43
53340;BME280;46212;50.258;19.062;2023-03-13T12:00:29;97651.25;;;13.20;49.75
53340;BME280;46212;50.258;19.062;2023-03-13T12:05:58;97629.94;;;13.37;48.97
53340;BME280;46212;50.258;19.062;2023-03-13T12:08:32;97631.53;;;13.60;48.94
53340;BME280;46212;50.258;19.062;2023-03-13T12:11:17;97638.16;;;13.85;47.47
53340;BME280;46212;50.258;19.062;2023-03-13T12:14:02;97617.97;;;13.79;47.18
53340;BME280;46212;50.258;19.062;2023-03-13T12:16:39;97615.19;;;13.79;47.40
53340;BME280;46212;50.258;19.062;2023-03-13T12:19:11;97608.91;;;14.06;46.89
53340;BME280;46212;50.258;19.062;2023-03-13T12:21:45;97625.06;;;13.91;47.64
53340;BME280;46212;50.258;19.062;2023-03-13T12:24:33;97616.31;;;13.45;47.50
53340;BME280;46212;50.258;19.062;2023-03-13T12:29:42;97643.38;;;13.61;46.67
53340;BME280;46212;50.258;19.062;2023-03-13T12:32:42;97617.66;;;13.07;47.00
53340;BME280;46212;50.258;19.062;2023-03-13T12:35:29;97603.88;;;13.18;48.21
53340;BME280;46212;50.258;19.062;2023-03-13T12:38:20;97605.66;;;13.21;48.69
53340;BME280;46212;50.258;19.062;2023-03-13T12:43:39;97629.81;;;13.09;49.84
53340;BME280;46212;50.258;19.062;2023-03-13T12:51:47;97644.59;;;12.64;51.29
53340;BME280;46212;50.258;19.062;2023-03-13T12:54:41;97620.47;;;12.07;52.70
53340;BME280;46212;50.258;19.062;2023-03-13T12:59:59;97632.31;;;12.08;54.09
53340;BME280;46212;50.258;19.062;2023-03-13T13:02:30;97634.47;;;11.98;54.79
53340;BME280;46212;50.258;19.062;2023-03-13T13:04:59;97618.25;;;11.86;54.67
53340;BME280;46212;50.258;19.062;2023-03-13T13:07:31;97635.16;;;11.93;54.73
53340;BME280;46212;50.258;19.062;2023-03-13T13:12:43;97612.59;;;11.75;55.69
53340;BME280;46212;50.258;19.062;2023-03-13T13:15:19;97631.00;;;11.78;58.38
53340;BME280;46212;50.258;19.062;2023-03-13T13:18:03;97625.41;;;11.72;57.28
53340;BME280;46212;50.258;19.062;2023-03-13T13:28:54;97606.34;;;11.54;58.95
53340;BME280;46212;50.258;19.062;2023-03-13T13:34:04;97589.59;;;11.63;58.52
53340;BME280;46212;50.258;19.062;2023-03-13T13:36:30;97577.00;;;11.62;59.08
53340;BME280;46212;50.258;19.062;2023-03-13T13:39:21;97589.44;;;11.52;59.09
53340;BME280;46212;50.258;19.062;2023-03-13T13:41:54;97592.81;;;11.15;60.95
53340;BME280;46212;50.258;19.062;2023-03-13T13:44:23;97589.56;;;11.17;60.93
53340;BME280;46212;50.258;19.062;2023-03-13T13:46:49;97572.72;;;11.15;61.44
53340;BME280;46212;50.258;19.062;2023-03-13T13:49:16;97576.78;;;10.99;63.27
53340;BME280;46212;50.258;19.062;2023-03-13T13:54:53;97572.66;;;10.54;63.84
53340;BME280;46212;50.258;19.062;2023-03-13T13:57:22;97555.47;;;10.45;63.57
53340;BME280;46212;50.258;19.062;2023-03-13T13:59:58;97580.56;;;10.61;63.44
53340;BME280;46212;50.258;19.062;2023-03-13T14:02:34;97578.00;;;10.78;62.95
53340;BME280;46212;50.258;19.062;2023-03-13T14:05:14;97584.09;;;10.82;62.01
53340;BME280;46212;50.258;19.062;2023-03-13T14:10:42;97578.13;;;10.69;63.02
53340;BME280;46212;50.258;19.062;2023-03-13T14:15:44;97561.03;;;10.65;62.51
53340;BME280;46212;50.258;19.062;2023-03-13T14:18:28;97557.31;;;10.68;63.13
53340;BME280;46212;50.258;19.062;2023-03-13T14:20:59;97560.53;;;10.66;64.30
53340;BME280;46212;50.258;19.062;2023-03-13T14:23:36;97562.22;;;10.44;64.86
53340;BME280;46212;50.258;19.062;2023-03-13T14:28:50;97570.84;;;10.17;68.14
53340;BME280;46212;50.258;19.062;2023-03-13T14:34:21;97551.31;;;10.05;68.83
53340;BME280;46212;50.258;19.062;2023-03-13T14:36:55;97559.22;;;10.12;68.54